Time;durP1;ratioP1;P1;durP2;ratioP2;P2;SDS_P1;SDS_P2;PMS_P1;PMS_P2;Temp;Humidity;BMP_temperature;BMP_pressure;BME280_temperature;BME280_humidity;BME280_pressure;Samples;Min_cycle;Max_cycle;Signal;HPM_P1;HPM_P2
2024/01/28 00:02:23;;;;;;;11.83;3.83;;;7.60;99.90;;;;;;5054040;28;20172;-89
2024/01/28 00:04:49;;;;;;;9.53;2.90;;;7.20;99.90;;;;;;5053163;28;20173;-90
2024/01/28 00:07:15;;;;;;;11.90;3.40;;;7.60;99.90;;;;;;5053680;28;20196;-90
2024/01/28 00:09:42;;;;;;;11.43;3.50;;;;;;;;;;5054515;28;20632;-90
2024/01/28 00:12:08;;;;;;;14.70;3.53;;;7.30;99.90;;;;;;5053938;28;20284;-90
2024/01/28 00:14:34;;;;;;;16.43;3.40;;;7.20;99.90;;;;;;5053920;28;20215;-91
2024/01/28 00:16:59;;;;;;;12.37;3.37;;;7.70;99.90;;;;;;5053642;28;20174;-91
2024/01/28 00:19:27;;;;;;;15.97;3.23;;;7.80;99.90;;;;;;5035868;28;20203;-89
2024/01/28 00:21:53;;;;;;;14.93;3.13;;;7.50;99.90;;;;;;5053477;28;20157;-90
2024/01/28 00:24:20;;;;;;;16.77;3.90;;;7.70;99.90;;;;;;5053198;28;20188;-89
2024/01/28 00:26:46;;;;;;;14.03;3.50;;;7.60;99.90;;;;;;5035466;28;20245;-89
2024/01/28 00:29:12;;;;;;;10.87;3.50;;;7.70;99.90;;;;;;5053344;28;20685;-90
2024/01/28 00:31:38;;;;;;;8.97;2.87;;;;;;;;;;5052816;28;20184;-88
2024/01/28 00:34:03;;;;;;;11.43;3.40;;;7.90;99.90;;;;;;5052677;28;20215;-89
2024/01/28 00:36:29;;;;;;;6.23;2.90;;;;;;;;;;5018417;28;20647;-88
2024/01/28 00:38:55;;;;;;;11.80;2.93;;;7.40;99.90;;;;;;5052508;28;20240;-88
2024/01/28 00:41:28;;;;;;;9.87;3.10;;;7.20;99.90;;;;;;5047563;28;20656;-88
2024/01/28 00:43:54;;;;;;;15.43;3.40;;;7.40;99.90;;;;;;5032643;28;20177;-88
2024/01/28 00:46:22;;;;;;;13.00;3.13;;;7.40;99.90;;;;;;5051477;28;20188;-88
2024/01/28 00:48:48;;;;;;;11.53;2.97;;;7.30;99.90;;;;;;5052762;28;20574;-88
2024/01/28 00:51:14;;;;;;;13.30;3.23;;;7.20;99.90;;;;;;5052553;28;20165;-90
2024/01/28 00:53:39;;;;;;;8.93;3.00;;;7.40;99.90;;;;;;5052307;28;20542;-89
2024/01/28 00:56:06;;;;;;;10.93;3.13;;;;;;;;;;5034795;28;20181;-90
2024/01/28 00:58:31;;;;;;;17.57;3.27;;;7.40;99.90;;;;;;5052750;28;20182;-90
2024/01/28 01:00:57;;;;;;;11.30;2.83;;;;;;;;;;5051534;28;20227;-90
2024/01/28 01:03:23;;;;;;;11.07;3.03;;;7.90;99.90;;;;;;5032329;28;20633;-93
2024/01/28 01:05:49;;;;;;;11.07;2.83;;;7.80;99.90;;;;;;5041543;28;20188;-89
2024/01/28 01:08:14;;;;;;;12.37;3.40;;;8.10;99.90;;;;;;5235847;23;20187;-88
2024/01/28 01:10:43;;;;;;;9.27;2.80;;;7.70;99.90;;;;;;5071668;28;20184;-90
2024/01/28 01:13:09;;;;;;;10.30;2.83;;;8.20;99.90;;;;;;5074978;28;20215;-88
2024/01/28 01:15:34;;;;;;;5.97;2.40;;;8.10;99.90;;;;;;5073421;28;20188;-90
2024/01/28 01:18:00;;;;;;;12.23;2.73;;;8.00;99.90;;;;;;5076217;28;20141;-91
2024/01/28 01:20:26;;;;;;;10.27;2.70;;;8.10;99.90;;;;;;5076477;28;20252;-91
2024/01/28 01:22:53;;;;;;;5.83;2.23;;;8.40;99.90;;;;;;5076852;28;20168;-89
2024/01/28 01:25:19;;;;;;;8.83;2.67;;;;;;;;;;5076922;28;20184;-92
2024/01/28 01:27:45;;;;;;;9.53;2.90;;;8.10;99.90;;;;;;5060061;28;20248;-86
2024/01/28 01:30:11;;;;;;;12.93;3.17;;;8.00;99.90;;;;;;5059466;28;20173;-89
2024/01/28 01:32:40;;;;;;;6.70;2.40;;;8.10;99.90;;;;;;5042469;28;20161;-92
2024/01/28 01:35:09;;;;;;;5.10;2.20;;;8.00;99.90;;;;;;5063897;28;20276;-90
2024/01/28 01:37:35;;;;;;;10.23;2.53;;;8.10;99.90;;;;;;5059760;28;20165;-88
2024/01/28 01:40:01;;;;;;;5.90;2.27;;;7.90;99.90;;;;;;5077641;28;20173;-87
2024/01/28 01:42:27;;;;;;;7.27;1.87;;;7.80;99.90;;;;;;5059756;28;20161;-89
2024/01/28 01:44:53;;;;;;;10.37;3.00;;;8.00;99.90;;;;;;5076443;28;20168;-89
2024/01/28 01:47:19;;;;;;;10.53;2.50;;;7.60;99.90;;;;;;5076529;28;20173;-89
2024/01/28 01:49:46;;;;;;;7.03;2.50;;;7.80;99.90;;;;;;5073826;28;20170;-87
2024/01/28 01:52:16;;;;;;;10.33;2.90;;;7.80;99.90;;;;;;5073414;28;20170;-87
2024/01/28 01:54:43;;;;;;;8.90;2.73;;;7.80;99.90;;;;;;5069207;28;20244;-86
2024/01/28 01:57:10;;;;;;;6.23;2.50;;;7.90;99.90;;;;;;5071360;28;20188;-88
2024/01/28 01:59:37;;;;;;;8.70;2.83;;;7.60;99.90;;;;;;5063685;28;20196;-90
2024/01/28 02:02:07;;;;;;;8.57;2.40;;;7.50;99.90;;;;;;5061408;28;20185;-89
2024/01/28 02:04:33;;;;;;;8.97;2.73;;;7.80;99.90;;;;;;5058996;28;20177;-90
2024/01/28 02:07:00;;;;;;;8.60;2.50;;;7.70;99.90;;;;;;5052454;28;20184;-90
2024/01/28 02:09:26;;;;;;;9.87;3.17;;;7.90;99.90;;;;;;5059233;28;20232;-88
2024/01/28 02:11:51;;;;;;;12.20;2.53;;;7.70;99.90;;;;;;5059124;28;20686;-89
2024/01/28 02:14:24;;;;;;;8.97;2.13;;;7.80;99.90;;;;;;5058629;28;20280;-91
2024/01/28 02:16:50;;;;;;;8.37;2.43;;;7.80;99.90;;;;;;5070067;28;20518;-90
2024/01/28 02:19:16;;;;;;;8.30;3.07;;;;;;;;;;5076166;28;20679;-90
2024/01/28 02:21:42;;;;;;;8.43;3.20;;;7.70;99.90;;;;;;5079908;28;20177;-86
2024/01/28 02:24:07;;;;;;;7.30;2.43;;;7.70;99.90;;;;;;5532898;22;20247;-89
2024/01/28 02:26:33;;;;;;;4.13;2.03;;;7.90;99.90;;;;;;5071484;28;20189;-91
2024/01/28 02:28:59;;;;;;;11.07;2.63;;;7.70;99.90;;;;;;5079079;28;20161;-89
2024/01/28 02:31:24;;;;;;;8.43;2.67;;;7.70;99.90;;;;;;5075333;28;20207;-89
2024/01/28 02:33:50;;;;;;;7.80;2.80;;;7.90;99.90;;;;;;5073343;28;20221;-93
2024/01/28 02:36:16;;;;;;;6.90;2.50;;;7.90;99.90;;;;;;5061668;28;20552;-92
2024/01/28 02:38:41;;;;;;;9.13;2.70;;;7.70;99.90;;;;;;5054604;28;20238;-93
2024/01/28 02:41:08;;;;;;;14.03;3.10;;;;;;;;;;5046740;28;20178;-94
2024/01/28 02:43:34;;;;;;;10.30;2.40;;;;;;;;;;5036301;28;20162;-94
2024/01/28 02:46:00;;;;;;;10.60;2.70;;;7.80;99.90;;;;;;5051347;28;20169;-93
2024/01/28 02:48:26;;;;;;;12.20;3.03;;;7.30;99.90;;;;;;5055906;28;20196;-93
2024/01/28 02:50:51;;;;;;;10.37;2.57;;;7.80;99.90;;;;;;5071159;28;20179;-92
2024/01/28 02:53:17;;;;;;;7.63;2.83;;;7.60;99.90;;;;;;5054633;28;20296;-92
2024/01/28 02:55:43;;;;;;;10.30;2.77;;;7.80;99.90;;;;;;5054634;28;20191;-93
2024/01/28 02:58:08;;;;;;;6.83;2.53;;;7.70;99.90;;;;;;5056615;28;20188;-93
2024/01/28 03:00:38;;;;;;;9.30;2.50;;;;;;;;;;5055971;28;20173;-93
2024/01/28 03:03:04;;;;;;;10.70;2.97;;;7.50;99.90;;;;;;5057302;28;20233;-92
2024/01/28 03:05:30;;;;;;;13.37;2.83;;;7.50;99.90;;;;;;5064600;28;20181;-92
2024/01/28 03:07:56;;;;;;;7.07;2.53;;;7.70;99.90;;;;;;5071849;28;20169;-93
2024/01/28 03:10:21;;;;;;;11.20;3.13;;;7.40;99.90;;;;;;5100569;28;20181;-87
2024/01/28 03:12:50;;;;;;;7.13;2.50;;;7.50;99.90;;;;;;5466472;22;20237;-94
2024/01/28 03:15:18;;;;;;;11.00;2.83;;;7.50;99.90;;;;;;5055012;28;20209;-92
2024/01/28 03:17:44;;;;;;;7.80;2.20;;;7.60;99.90;;;;;;5054908;28;20173;-90
2024/01/28 03:20:10;;;;;;;6.90;2.67;;;7.30;99.90;;;;;;5053772;28;20268;-91
2024/01/28 03:22:36;;;;;;;8.73;2.80;;;7.30;99.90;;;;;;5057129;28;20166;-92
2024/01/28 03:25:02;;;;;;;14.40;2.67;;;7.30;99.90;;;;;;5073926;28;20175;-92
2024/01/28 03:27:27;;;;;;;14.53;2.73;;;7.40;99.90;;;;;;5088311;28;20171;-91
2024/01/28 03:29:53;;;;;;;5.63;2.47;;;7.20;99.90;;;;;;5307162;22;20217;-90
2024/01/28 03:32:19;;;;;;;11.27;2.67;;;;;;;;;;5813168;22;20236;-91
2024/01/28 03:34:45;;;;;;;8.60;2.60;;;7.30;99.90;;;;;;5045837;28;20212;-91
2024/01/28 03:37:11;;;;;;;11.00;2.57;;;;;;;;;;5075481;28;20165;-92
2024/01/28 03:39:36;;;;;;;6.37;2.37;;;7.30;99.90;;;;;;5418352;22;20199;-90
2024/01/28 03:42:03;;;;;;;8.07;2.60;;;;;;;;;;5936444;22;20937;-92
2024/01/28 03:44:30;;;;;;;5.53;2.30;;;7.40;99.90;;;;;;5354386;22;20240;-92
2024/01/28 03:46:57;;;;;;;7.90;2.73;;;7.80;99.90;;;;;;5055152;28;20200;-93
2024/01/28 03:49:22;;;;;;;6.80;2.83;;;7.20;99.90;;;;;;5055615;28;20177;-94
2024/01/28 03:51:48;;;;;;;7.17;2.50;;;7.20;99.90;;;;;;5057912;28;20197;-93
2024/01/28 03:54:14;;;;;;;6.07;2.30;;;7.20;99.90;;;;;;5035014;28;20316;-93
2024/01/28 03:56:40;;;;;;;9.03;2.80;;;7.40;99.90;;;;;;5047268;28;20185;-93
2024/01/28 03:59:06;;;;;;;10.50;2.63;;;7.40;99.90;;;;;;5037344;28;20724;-93
2024/01/28 04:01:33;;;;;;;8.40;3.17;;;7.10;99.90;;;;;;5036216;28;20215;-92
2024/01/28 04:03:59;;;;;;;11.60;3.47;;;7.10;99.90;;;;;;5054759;28;20268;-93
2024/01/28 04:06:25;;;;;;;13.60;3.03;;;6.90;99.90;;;;;;5054236;28;20718;-92
2024/01/28 04:08:57;;;;;;;10.47;2.80;;;6.80;99.90;;;;;;5054683;28;20183;-93
2024/01/28 04:11:26;;;;;;;9.33;2.53;;;7.10;99.90;;;;;;5033178;28;20574;-92
2024/01/28 04:13:55;;;;;;;11.20;2.60;;;7.10;99.90;;;;;;5041723;28;20205;-93
2024/01/28 04:16:22;;;;;;;4.87;2.43;;;7.10;99.90;;;;;;5055561;28;20173;-93
2024/01/28 04:18:49;;;;;;;10.60;2.83;;;7.00;99.90;;;;;;5374310;22;20187;-87
2024/01/28 04:21:14;;;;;;;8.63;2.73;;;7.50;99.90;;;;;;5710381;22;20221;-93
2024/01/28 04:23:40;;;;;;;5.03;2.37;;;7.10;99.90;;;;;;5073266;28;20413;-91
2024/01/28 04:26:07;;;;;;;6.97;2.30;;;7.30;99.90;;;;;;5039076;28;20200;-91
2024/01/28 04:28:32;;;;;;;3.80;2.23;;;7.00;99.90;;;;;;5044285;28;20177;-89
2024/01/28 04:30:58;;;;;;;7.50;2.50;;;;;;;;;;5872561;22;20187;-90
2024/01/28 04:33:24;;;;;;;4.83;2.20;;;7.20;99.90;;;;;;5046418;28;20232;-91
2024/01/28 04:35:50;;;;;;;4.37;2.30;;;6.10;99.90;;;;;;5043072;28;20178;-92
2024/01/28 04:38:16;;;;;;;8.37;2.90;;;7.00;99.90;;;;;;5032643;28;20178;-92
2024/01/28 04:40:42;;;;;;;5.67;2.60;;;;;;;;;;5025699;28;20223;-93
2024/01/28 04:43:08;;;;;;;5.23;2.60;;;7.10;99.90;;;;;;5053735;28;20640;-94
2024/01/28 04:45:34;;;;;;;7.83;2.67;;;;;;;;;;5016728;28;20189;-93
2024/01/28 04:47:59;;;;;;;7.33;2.37;;;6.90;99.90;;;;;;5016407;28;20228;-93
2024/01/28 04:50:25;;;;;;;9.40;2.97;;;;;;;;;;5034614;28;20227;-93
2024/01/28 04:52:52;;;;;;;7.57;2.50;;;7.00;99.90;;;;;;5034300;28;20663;-94
2024/01/28 04:55:18;;;;;;;4.07;2.13;;;7.10;99.90;;;;;;5047749;28;20205;-94
2024/01/28 04:57:43;;;;;;;9.27;2.70;;;6.90;99.90;;;;;;5039939;28;20185;-92
2024/01/28 05:00:10;;;;;;;5.97;2.23;;;7.10;99.90;;;;;;5054918;28;20170;-92
2024/01/28 05:02:37;;;;;;;8.40;2.83;;;7.40;99.90;;;;;;5055566;28;20153;-93
2024/01/28 05:05:03;;;;;;;9.27;2.80;;;7.10;99.90;;;;;;5055077;28;20202;-88
2024/01/28 05:07:29;;;;;;;6.80;2.70;;;7.00;99.90;;;;;;5053976;28;20150;-92
2024/01/28 05:09:57;;;;;;;3.90;2.23;;;7.10;99.90;;;;;;5047610;28;20242;-93
2024/01/28 05:12:23;;;;;;;5.37;2.30;;;;;;;;;;5054630;28;20165;-87
2024/01/28 05:14:50;;;;;;;9.20;2.57;;;6.90;99.90;;;;;;5053336;28;20244;-91
2024/01/28 05:17:16;;;;;;;3.73;2.23;;;6.90;99.90;;;;;;5049914;28;20229;-90
2024/01/28 05:19:42;;;;;;;3.50;2.13;;;6.90;99.90;;;;;;5048706;28;20170;-89
2024/01/28 05:22:07;;;;;;;5.83;2.67;;;6.70;99.90;;;;;;5051191;28;20171;-89
2024/01/28 05:24:33;;;;;;;5.40;2.30;;;6.70;99.90;;;;;;5050003;28;20188;-88
2024/01/28 05:26:59;;;;;;;6.70;2.57;;;;;;;;;;5049005;28;20178;-88
2024/01/28 05:29:25;;;;;;;5.57;2.70;;;6.20;99.90;;;;;;5049613;28;20170;-87
2024/01/28 05:31:52;;;;;;;7.67;2.90;;;6.80;99.90;;;;;;5041023;28;20223;-91
2024/01/28 05:34:18;;;;;;;7.73;2.77;;;6.40;99.90;;;;;;5034578;28;20213;-91
2024/01/28 05:36:51;;;;;;;7.67;2.70;;;6.20;99.90;;;;;;5034558;28;20174;-91
2024/01/28 05:39:17;;;;;;;4.97;2.60;;;6.10;99.90;;;;;;5033508;28;20163;-91
2024/01/28 05:41:43;;;;;;;6.57;2.90;;;6.10;99.90;;;;;;5033489;28;20184;-91
2024/01/28 05:44:10;;;;;;;7.67;3.47;;;6.30;99.90;;;;;;5033045;28;20177;-92
2024/01/28 05:46:36;;;;;;;10.40;3.50;;;6.40;99.90;;;;;;5033402;28;20581;-91
2024/01/28 05:49:02;;;;;;;10.20;4.37;;;;;;;;;;5037439;28;20260;-90
2024/01/28 05:51:27;;;;;;;6.43;3.87;;;6.20;99.90;;;;;;5037704;28;20162;-91
2024/01/28 05:53:54;;;;;;;5.47;2.23;;;5.90;99.90;;;;;;5019931;28;20221;-91
2024/01/28 05:56:20;;;;;;;5.40;2.20;;;6.40;99.90;;;;;;5038010;28;20169;-91
2024/01/28 05:58:47;;;;;;;4.50;2.37;;;6.40;99.90;;;;;;5037525;28;20170;-91
2024/01/28 06:01:13;;;;;;;4.67;2.47;;;;;;;;;;5037328;28;20675;-91
2024/01/28 06:03:39;;;;;;;3.63;1.90;;;6.50;99.90;;;;;;5032053;28;20193;-92
2024/01/28 06:06:05;;;;;;;4.73;2.53;;;;;;;;;;5036807;28;20178;-90
2024/01/28 06:08:32;;;;;;;4.77;2.23;;;;;;;;;;5035973;28;20173;-90
2024/01/28 06:10:58;;;;;;;6.50;2.07;;;6.40;99.90;;;;;;5036260;28;20184;-91
2024/01/28 06:13:23;;;;;;;2.70;2.00;;;6.50;99.90;;;;;;5036651;28;20202;-92
2024/01/28 06:15:51;;;;;;;4.90;2.03;;;6.50;99.90;;;;;;5039849;28;20169;-91
2024/01/28 06:18:19;;;;;;;4.20;2.20;;;6.60;99.90;;;;;;5027222;28;20176;-91
2024/01/28 06:20:45;;;;;;;2.63;2.00;;;6.60;99.90;;;;;;5044534;28;20474;-91
2024/01/28 06:23:10;;;;;;;4.93;2.47;;;6.50;99.90;;;;;;5043315;28;20233;-91
2024/01/28 06:25:36;;;;;;;6.60;2.70;;;6.00;99.90;;;;;;5038311;28;20280;-90
2024/01/28 06:28:03;;;;;;;4.73;2.17;;;;;;;;;;5035727;28;20177;-92
2024/01/28 06:30:29;;;;;;;3.10;1.77;;;6.60;99.90;;;;;;5036286;28;20178;-92
2024/01/28 06:32:55;;;;;;;6.17;2.30;;;6.80;99.90;;;;;;5020517;28;20225;-92
2024/01/28 06:35:20;;;;;;;3.60;2.10;;;7.20;99.90;;;;;;5046557;28;20197;-93
2024/01/28 06:37:47;;;;;;;4.30;2.00;;;7.40;99.90;;;;;;5058209;28;20277;-93
2024/01/28 06:40:12;;;;;;;4.30;1.80;;;6.90;99.90;;;;;;5020873;28;20174;-91
2024/01/28 06:42:38;;;;;;;4.97;1.80;;;7.20;99.90;;;;;;5038832;28;20176;-90
2024/01/28 06:45:04;;;;;;;3.60;1.73;;;;;;;;;;5084244;22;20233;-90
2024/01/28 06:47:30;;;;;;;3.23;1.70;;;7.50;99.90;;;;;;5062126;28;20271;-92
2024/01/28 06:49:55;;;;;;;5.03;1.97;;;7.10;99.90;;;;;;5055281;28;20205;-94
2024/01/28 06:52:21;;;;;;;2.63;2.00;;;6.80;99.90;;;;;;5037755;28;20216;-93
2024/01/28 06:54:47;;;;;;;5.57;2.00;;;7.20;99.90;;;;;;5055520;28;20209;-92
2024/01/28 06:57:13;;;;;;;4.50;2.07;;;;;;;;;;5055872;28;20228;-92
2024/01/28 06:59:43;;;;;;;3.90;2.10;;;7.10;99.90;;;;;;5036902;28;20169;-93
2024/01/28 07:02:09;;;;;;;3.67;1.70;;;6.90;99.90;;;;;;5057428;28;20170;-93
2024/01/28 07:04:34;;;;;;;4.53;2.00;;;6.80;99.90;;;;;;5060340;28;20185;-91
2024/01/28 07:07:01;;;;;;;3.33;1.70;;;7.00;99.90;;;;;;5079808;28;20165;-91
2024/01/28 07:09:27;;;;;;;4.03;1.67;;;;;;;;;;5880557;22;20190;-92
2024/01/28 07:11:54;;;;;;;4.50;1.80;;;7.00;99.90;;;;;;5055553;28;20240;-91
2024/01/28 07:14:19;;;;;;;3.57;2.00;;;7.00;99.90;;;;;;5045594;28;20217;-93
2024/01/28 07:16:45;;;;;;;5.80;1.80;;;7.10;99.90;;;;;;5044971;28;20178;-91
2024/01/28 07:19:11;;;;;;;1.77;1.50;;;7.00;99.90;;;;;;5036269;28;20182;-92
2024/01/28 07:21:38;;;;;;;3.67;1.63;;;6.70;99.90;;;;;;5046439;28;20189;-90
2024/01/28 07:24:04;;;;;;;4.93;1.77;;;6.90;99.90;;;;;;5034112;28;20178;-90
2024/01/28 07:26:30;;;;;;;3.97;1.60;;;;;;;;;;5023188;28;20767;-92
2024/01/28 07:28:55;;;;;;;2.60;1.60;;;6.80;99.90;;;;;;5015578;28;20257;-91
2024/01/28 07:31:21;;;;;;;4.07;1.70;;;;;;;;;;5014885;28;20198;-93
2024/01/28 07:33:48;;;;;;;6.37;2.00;;;;;;;;;;5014711;28;20296;-93
2024/01/28 07:36:15;;;;;;;5.30;1.80;;;6.80;99.90;;;;;;5022048;28;20178;-92
2024/01/28 07:38:42;;;;;;;3.23;1.73;;;7.70;99.90;;;;;;5035110;28;20174;-92
2024/01/28 07:41:14;;;;;;;4.00;1.80;;;;;;;;;;5034202;28;20262;-91
2024/01/28 07:43:43;;;;;;;3.23;1.50;;;6.80;99.90;;;;;;5034482;28;20162;-91
2024/01/28 07:46:09;;;;;;;5.27;1.83;;;6.80;99.90;;;;;;5034455;28;20240;-91
2024/01/28 07:48:35;;;;;;;4.97;1.87;;;7.00;99.90;;;;;;5034388;28;20174;-92
2024/01/28 07:51:02;;;;;;;4.77;1.80;;;;;;;;;;5034407;28;20264;-90
2024/01/28 07:53:28;;;;;;;3.87;1.70;;;;;;;;;;5033852;28;20709;-89
2024/01/28 07:55:54;;;;;;;4.80;1.90;;;7.30;99.90;;;;;;5145095;23;21222;-82
2024/01/28 07:58:20;;;;;;;5.23;1.97;;;7.00;99.90;;;;;;5581729;22;21415;-93
2024/01/28 08:00:46;;;;;;;5.60;2.00;;;6.90;99.90;;;;;;5043421;28;20182;-90
2024/01/28 08:03:12;;;;;;;3.10;1.70;;;;;;;;;;5035115;28;20209;-93
2024/01/28 08:05:37;;;;;;;5.57;1.83;;;6.80;99.90;;;;;;5035691;28;20170;-92
2024/01/28 08:08:03;;;;;;;4.03;1.67;;;;;;;;;;5035596;28;20173;-92
2024/01/28 08:10:30;;;;;;;2.63;1.77;;;7.00;99.90;;;;;;5941878;23;21383;-89
2024/01/28 08:12:57;;;;;;;2.57;1.60;;;;;;;;;;5832549;22;21241;-83
2024/01/28 08:15:22;;;;;;;2.13;1.53;;;7.20;99.90;;;;;;5872517;22;21074;-91
2024/01/28 08:17:49;;;;;;;4.87;1.97;;;7.20;99.90;;;;;;5834082;22;21373;-90
2024/01/28 08:20:16;;;;;;;3.00;1.47;;;7.40;99.90;;;;;;5180261;22;20225;-92
2024/01/28 08:22:44;;;;;;;5.50;2.17;;;7.20;99.90;;;;;;5052963;28;20272;-92
2024/01/28 08:25:12;;;;;;;3.83;1.47;;;;;;;;;;5056533;28;20173;-90
2024/01/28 08:27:39;;;;;;;5.80;1.97;;;7.30;99.90;;;;;;5054687;28;20203;-93
2024/01/28 08:30:06;;;;;;;4.13;1.63;;;7.50;99.90;;;;;;5053627;28;20177;-91
2024/01/28 08:32:32;;;;;;;6.37;1.87;;;7.60;99.90;;;;;;5053663;28;20181;-92
2024/01/28 08:34:58;;;;;;;3.23;1.73;;;7.60;99.90;;;;;;5063618;28;20196;-90
2024/01/28 08:37:23;;;;;;;5.60;2.00;;;7.30;99.90;;;;;;5076055;28;20150;-93
2024/01/28 08:39:49;;;;;;;5.63;2.20;;;7.80;99.90;;;;;;5076549;28;20166;-91
2024/01/28 08:42:16;;;;;;;3.60;1.90;;;;;;;;;;5077264;28;20165;-90
2024/01/28 08:44:42;;;;;;;3.37;1.80;;;;;;;;;;5073180;28;20169;-90
2024/01/28 08:47:10;;;;;;;5.97;2.27;;;7.80;99.90;;;;;;5247879;22;20245;-91
2024/01/28 08:49:35;;;;;;;4.40;1.90;;;7.70;99.90;;;;;;5035667;28;20227;-91
2024/01/28 08:52:01;;;;;;;3.27;2.00;;;;;;;;;;5031124;28;20241;-92
2024/01/28 08:54:27;;;;;;;4.30;1.97;;;8.10;99.90;;;;;;5015562;28;20210;-91
2024/01/28 08:56:53;;;;;;;3.27;1.80;;;;;;;;;;5020672;28;20182;-91
2024/01/28 08:59:19;;;;;;;4.27;1.90;;;8.40;99.90;;;;;;5034451;28;20202;-93
2024/01/28 09:01:47;;;;;;;3.20;2.00;;;;;;;;;;5034133;28;20209;-92
2024/01/28 09:04:13;;;;;;;5.77;2.60;;;;;;;;;;5030900;28;20178;-92
2024/01/28 09:06:39;;;;;;;3.77;2.20;;;9.10;99.90;;;;;;5033492;28;20186;-93
2024/01/28 09:09:08;;;;;;;6.73;2.33;;;9.20;99.90;;;;;;5034337;28;20177;-92
2024/01/28 09:11:34;;;;;;;6.07;2.67;;;9.30;99.90;;;;;;5018073;28;20182;-93
2024/01/28 09:14:01;;;;;;;4.67;2.33;;;9.50;99.90;;;;;;5035140;28;20214;-90
2024/01/28 09:16:27;;;;;;;4.13;2.53;;;;;;;;;;5041768;28;20647;-94
2024/01/28 09:18:53;;;;;;;6.60;2.47;;;9.20;99.90;;;;;;5029351;28;20186;-89
2024/01/28 09:21:18;;;;;;;7.43;2.43;;;9.40;99.90;;;;;;5052509;28;20180;-94
2024/01/28 09:23:45;;;;;;;4.47;2.00;;;;;;;;;;5054295;28;20189;-92
2024/01/28 09:26:11;;;;;;;6.87;2.23;;;;;;;;;;5052996;28;20170;-90
2024/01/28 09:28:37;;;;;;;4.77;2.00;;;9.60;99.90;;;;;;5050579;28;20238;-92
2024/01/28 09:31:07;;;;;;;5.20;2.00;;;9.90;99.90;;;;;;5039466;28;20180;-90
2024/01/28 09:33:33;;;;;;;5.77;2.30;;;;;;;;;;5039172;28;20212;-90
2024/01/28 09:35:59;;;;;;;5.30;2.23;;;10.10;99.90;;;;;;5022429;28;20178;-91
2024/01/28 09:38:24;;;;;;;6.63;2.13;;;10.20;99.90;;;;;;5039077;28;20170;-90
2024/01/28 09:40:50;;;;;;;6.63;2.50;;;10.50;99.90;;;;;;5039477;28;20218;-87
2024/01/28 09:43:29;;;;;;;6.30;2.10;;;10.40;99.90;;;;;;5039197;28;20185;-90
2024/01/28 09:45:55;;;;;;;4.63;2.27;;;10.20;99.90;;;;;;5049522;28;20216;-92
2024/01/28 09:48:21;;;;;;;5.00;1.80;;;10.60;99.90;;;;;;5060188;28;20181;-89
2024/01/28 09:50:48;;;;;;;5.63;1.93;;;10.90;99.90;;;;;;5055460;28;20169;-91
2024/01/28 09:53:14;;;;;;;10.17;2.40;;;12.50;99.90;;;;;;5039514;28;20170;-91
2024/01/28 09:55:40;;;;;;;5.80;1.90;;;11.20;99.90;;;;;;5039677;28;20758;-90
2024/01/28 09:58:07;;;;;;;2.47;1.57;;;11.50;99.90;;;;;;5039701;28;20177;-88
2024/01/28 10:00:33;;;;;;;7.23;1.93;;;11.70;99.90;;;;;;5039649;28;20253;-91
2024/01/28 10:02:59;;;;;;;4.97;1.90;;;;;;;;;;5039913;28;20170;-92
2024/01/28 10:05:25;;;;;;;6.20;2.07;;;11.00;99.90;;;;;;5022479;28;20205;-91
2024/01/28 10:08:02;;;;;;;7.60;1.93;;;10.50;99.90;;;;;;5039236;28;20201;-91
2024/01/28 10:10:28;;;;;;;7.23;1.83;;;10.40;99.90;;;;;;5035188;28;20192;-88
2024/01/28 10:12:57;;;;;;;4.33;1.83;;;10.40;99.90;;;;;;5028276;28;20189;-92
2024/01/28 10:15:27;;;;;;;6.67;2.07;;;10.40;99.90;;;;;;5038744;28;20217;-92
2024/01/28 10:17:53;;;;;;;7.80;1.90;;;10.30;99.90;;;;;;5021982;28;20209;-90
2024/01/28 10:20:22;;;;;;;5.00;1.97;;;10.10;99.90;;;;;;5017474;28;20210;-87
2024/01/28 10:22:48;;;;;;;7.60;1.90;;;10.40;99.90;;;;;;5018861;28;20175;-87
2024/01/28 10:25:16;;;;;;;9.10;2.20;;;10.30;99.90;;;;;;5018721;28;20174;-89
2024/01/28 10:27:45;;;;;;;4.27;1.87;;;10.70;99.90;;;;;;5018734;28;20194;-89
2024/01/28 10:30:13;;;;;;;4.60;1.93;;;10.30;99.90;;;;;;5017444;28;20274;-86
2024/01/28 10:32:39;;;;;;;6.00;2.00;;;10.50;99.90;;;;;;5017810;28;20170;-84
2024/01/28 10:35:08;;;;;;;6.40;2.07;;;10.70;99.90;;;;;;5032232;28;20259;-82
2024/01/28 10:37:34;;;;;;;4.83;1.90;;;10.20;99.90;;;;;;5034783;28;20174;-85
2024/01/28 10:40:05;;;;;;;8.47;2.30;;;10.70;99.90;;;;;;5033891;28;20645;-86
2024/01/28 10:42:35;;;;;;;4.90;1.77;;;10.60;99.90;;;;;;5034807;28;20259;-87
2024/01/28 10:45:03;;;;;;;12.30;2.57;;;10.60;99.90;;;;;;5034090;28;20173;-86
2024/01/28 10:47:33;;;;;;;7.07;2.27;;;10.70;99.90;;;;;;5034390;28;20746;-80
2024/01/28 10:50:02;;;;;;;5.97;2.10;;;10.60;99.90;;;;;;5039630;28;20158;-84
2024/01/28 10:52:29;;;;;;;5.83;2.33;;;10.60;99.90;;;;;;5042592;28;20178;-84
2024/01/28 10:54:55;;;;;;;7.47;2.10;;;10.60;99.90;;;;;;5044580;28;20216;-86
2024/01/28 10:57:23;;;;;;;6.93;2.27;;;10.70;99.90;;;;;;5034433;28;20201;-79
2024/01/28 10:59:51;;;;;;;2.97;1.73;;;;;;;;;;5034074;28;20197;-84
2024/01/28 11:02:19;;;;;;;5.30;1.77;;;10.90;99.90;;;;;;5034124;28;20181;-80
2024/01/28 11:04:46;;;;;;;4.20;1.53;;;;;;;;;;5033363;28;20182;-85
2024/01/28 11:07:12;;;;;;;5.90;2.20;;;10.70;99.90;;;;;;5033588;28;20174;-82
2024/01/28 11:09:38;;;;;;;5.70;2.17;;;;;;;;;;5015580;28;20539;-83
2024/01/28 11:12:05;;;;;;;12.37;2.33;;;11.20;99.90;;;;;;5033152;28;20170;-84
2024/01/28 11:14:31;;;;;;;6.40;2.20;;;;;;;;;;5033323;28;20213;-82
2024/01/28 11:16:57;;;;;;;8.33;1.90;;;11.90;99.90;;;;;;5031856;28;20158;-83
2024/01/28 11:19:27;;;;;;;5.20;2.00;;;11.60;99.90;;;;;;5031901;28;20182;-79
2024/01/28 11:21:53;;;;;;;11.93;3.13;;;;;;;;;;5031723;28;20265;-79
2024/01/28 11:24:19;;;;;;;8.33;2.73;;;;;;;;;;5028095;28;20182;-80
2024/01/28 11:26:47;;;;;;;4.63;2.20;;;11.80;99.90;;;;;;5021320;28;20174;-79
2024/01/28 11:29:15;;;;;;;5.17;1.90;;;12.60;99.90;;;;;;5032028;28;20260;-78
2024/01/28 11:31:42;;;;;;;5.77;2.03;;;12.50;99.90;;;;;;5032415;28;20181;-78
2024/01/28 11:34:19;;;;;;;8.43;2.00;;;11.90;99.90;;;;;;5032772;28;20294;-80
2024/01/28 11:36:47;;;;;;;7.47;1.87;;;13.40;99.90;;;;;;5033187;28;20177;-76
2024/01/28 11:39:15;;;;;;;10.60;2.00;;;13.10;99.90;;;;;;5031415;28;20182;-77
2024/01/28 11:41:47;;;;;;;9.10;2.43;;;12.50;99.90;;;;;;5030051;28;20556;-77
2024/01/28 11:44:13;;;;;;;5.73;1.80;;;12.70;99.90;;;;;;5030768;28;20178;-77
2024/01/28 11:46:39;;;;;;;7.17;2.30;;;13.30;99.90;;;;;;5031746;28;20229;-77
2024/01/28 11:49:06;;;;;;;11.30;2.20;;;13.20;99.90;;;;;;5033385;28;20645;-78
2024/01/28 11:51:34;;;;;;;10.00;2.27;;;14.60;99.90;;;;;;5032369;28;20173;-76
2024/01/28 11:54:03;;;;;;;9.50;1.93;;;14.90;99.90;;;;;;5031793;28;20279;-77
2024/01/28 11:56:31;;;;;;;6.30;2.35;;;14.80;99.90;;;;;;5013632;28;20257;-75
2024/01/28 11:58:57;;;;;;;4.90;1.55;;;13.90;99.90;;;;;;5031881;28;20186;-78
2024/01/28 12:01:23;;;;;;;8.77;2.30;;;14.90;99.90;;;;;;5031745;28;20708;-79
2024/01/28 12:03:54;;;;;;;11.43;1.85;;;14.40;99.90;;;;;;5012255;28;20354;-77
2024/01/28 12:06:24;;;;;;;8.65;2.17;;;14.40;99.90;;;;;;5026028;28;20185;-77
2024/01/28 12:08:51;;;;;;;5.97;2.15;;;13.70;99.90;;;;;;5030764;28;20177;-77
2024/01/28 12:11:19;;;;;;;5.32;2.08;;;14.80;99.90;;;;;;5030789;28;20186;-78
2024/01/28 12:13:46;;;;;;;10.82;2.33;;;14.60;99.90;;;;;;5031140;28;20209;-77
2024/01/28 12:16:12;;;;;;;5.50;1.75;;;;;;;;;;5031521;28;20173;-77
2024/01/28 12:18:40;;;;;;;15.82;2.88;;;16.90;99.90;;;;;;5031077;28;20696;-77
2024/01/28 12:21:22;;;;;;;9.57;2.08;;;17.50;99.90;;;;;;5028141;28;20196;-77
2024/01/28 12:23:51;;;;;;;10.98;2.45;;;17.40;99.90;;;;;;5011757;28;20174;-76
2024/01/28 12:26:17;;;;;;;9.32;2.13;;;17.60;99.90;;;;;;5011772;28;20217;-76
2024/01/28 12:28:47;;;;;;;10.45;2.30;;;18.30;99.90;;;;;;5011987;28;20217;-77
2024/01/28 12:31:13;;;;;;;13.20;2.72;;;17.10;99.90;;;;;;5017813;28;20633;-78
2024/01/28 12:33:39;;;;;;;14.60;2.42;;;17.40;99.90;;;;;;5031156;28;20252;-77
2024/01/28 12:36:05;;;;;;;10.27;2.92;;;17.10;99.90;;;;;;5031517;28;20174;-77
2024/01/28 12:38:31;;;;;;;13.75;2.70;;;16.60;99.90;;;;;;5031535;28;20243;-77
2024/01/28 12:40:57;;;;;;;14.25;2.85;;;;;;;;;;5031344;28;20633;-77
2024/01/28 12:43:23;;;;;;;12.20;2.53;;;17.00;99.90;;;;;;5031159;28;20174;-77
2024/01/28 12:45:49;;;;;;;14.95;2.88;;;17.00;99.90;;;;;;5030923;28;20711;-77
2024/01/28 12:48:15;;;;;;;11.07;2.67;;;;;;;;;;5031220;28;20173;-77
2024/01/28 12:50:41;;;;;;;10.80;2.72;;;16.90;99.90;;;;;;5031353;28;20182;-77
2024/01/28 12:53:07;;;;;;;8.30;2.63;;;17.60;99.90;;;;;;5031309;28;20687;-77
2024/01/28 12:55:33;;;;;;;9.63;2.72;;;18.00;99.90;;;;;;5030959;28;20248;-78
2024/01/28 12:57:58;;;;;;;11.20;2.70;;;18.10;99.90;;;;;;5030567;28;20675;-77
2024/01/28 13:00:24;;;;;;;9.70;2.60;;;17.20;1.00;;;;;;5013429;28;20213;-77
2024/01/28 13:02:50;;;;;;;7.95;2.33;;;17.10;87.30;;;;;;5031314;28;20177;-78
2024/01/28 13:05:16;;;;;;;13.05;3.30;;;18.10;50.70;;;;;;5031379;28;20239;-77